Time;durP1;ratioP1;P1;durP2;ratioP2;P2;SDS_P1;SDS_P2;PMS_P1;PMS_P2;Temp;Humidity;BMP_temperature;BMP_pressure;BME280_temperature;BME280_humidity;BME280_pressure;Samples;Min_cycle;Max_cycle;Signal;HPM_P1;HPM_P2
2023/04/07 00:01:43;;;;;;;13.45;4.60;;;11.50;99.90;;;;;;5034685;28;20044;-74
2023/04/07 00:04:09;;;;;;;9.80;3.70;;;11.60;99.90;;;;;;5033945;28;20040;-75
2023/04/07 00:06:35;;;;;;;16.70;4.85;;;11.40;99.90;;;;;;5033922;28;20032;-75
2023/04/07 00:09:01;;;;;;;18.88;4.70;;;11.30;99.90;;;;;;5034602;28;20041;-75
2023/04/07 00:11:28;;;;;;;17.85;4.95;;;11.20;99.90;;;;;;5017374;28;20029;-75
2023/04/07 00:13:54;;;;;;;13.75;4.78;;;11.10;99.90;;;;;;5033729;28;20480;-75
2023/04/07 00:16:20;;;;;;;8.40;4.68;;;11.20;99.90;;;;;;5032850;28;20037;-74
2023/04/07 00:18:46;;;;;;;13.55;4.72;;;11.20;99.90;;;;;;5034721;28;20033;-75
2023/04/07 00:21:12;;;;;;;17.92;5.22;;;11.30;99.90;;;;;;5033600;28;20029;-75
2023/04/07 00:23:38;;;;;;;13.18;4.82;;;11.10;99.90;;;;;;5034449;28;20044;-75
2023/04/07 00:26:05;;;;;;;13.27;5.30;;;11.20;99.90;;;;;;5016479;28;20033;-75
2023/04/07 00:28:31;;;;;;;12.63;4.40;;;11.00;99.90;;;;;;5033541;28;20384;-75
2023/04/07 00:30:57;;;;;;;14.55;5.43;;;11.00;99.90;;;;;;5016081;28;20032;-75
2023/04/07 00:33:23;;;;;;;18.10;5.30;;;11.10;99.90;;;;;;5034651;28;20376;-74
2023/04/07 00:35:49;;;;;;;10.07;5.07;;;11.10;99.90;;;;;;5034558;28;20044;-75
2023/04/07 00:38:15;;;;;;;13.25;5.22;;;11.10;99.90;;;;;;5032982;28;20041;-74
2023/04/07 00:40:42;;;;;;;12.70;5.00;;;11.10;99.90;;;;;;5034592;28;20041;-75
2023/04/07 00:43:08;;;;;;;14.30;5.53;;;11.20;99.90;;;;;;5031853;28;20044;-75
2023/04/07 00:45:34;;;;;;;15.00;5.13;;;11.20;99.90;;;;;;4996533;28;20029;-75
2023/04/07 00:48:01;;;;;;;11.02;5.00;;;11.20;99.90;;;;;;4996780;28;20468;-74
2023/04/07 00:50:27;;;;;;;17.15;5.63;;;11.20;99.90;;;;;;5022668;28;20032;-75
2023/04/07 00:52:55;;;;;;;12.95;4.88;;;11.20;99.90;;;;;;5032642;28;20400;-75
2023/04/07 00:55:22;;;;;;;15.43;4.70;;;11.20;99.90;;;;;;5032869;28;20033;-75
2023/04/07 00:57:48;;;;;;;13.05;5.72;;;11.20;99.90;;;;;;5016038;28;20484;-75
2023/04/07 01:00:14;;;;;;;14.85;5.55;;;11.10;99.90;;;;;;5032337;28;20022;-74
2023/04/07 01:02:42;;;;;;;13.43;4.95;;;11.10;99.90;;;;;;5032700;28;20096;-74
2023/04/07 01:05:16;;;;;;;9.93;5.15;;;11.00;99.90;;;;;;5016623;28;20021;-74
2023/04/07 01:08:03;;;;;;;14.75;5.03;;;11.00;99.90;;;;;;5033401;28;20037;-75
2023/04/07 01:10:50;;;;;;;12.73;4.60;;;11.00;99.90;;;;;;5016725;28;20028;-75
2023/04/07 01:13:41;;;;;;;16.13;4.70;;;11.10;99.90;;;;;;5032534;28;20486;-75
2023/04/07 01:16:10;;;;;;;11.73;5.17;;;11.00;99.90;;;;;;5017740;28;20029;-75
2023/04/07 01:18:36;;;;;;;12.25;4.03;;;11.00;99.90;;;;;;4999759;28;20277;-74
2023/04/07 01:21:08;;;;;;;11.35;4.18;;;10.80;99.90;;;;;;5015808;28;20037;-75
2023/04/07 01:24:18;;;;;;;14.75;4.80;;;10.80;99.90;;;;;;5032515;28;20036;-74
2023/04/07 01:26:44;;;;;;;18.60;5.20;;;10.80;99.90;;;;;;5032205;28;20060;-75
2023/04/07 01:29:23;;;;;;;15.50;4.68;;;10.90;99.90;;;;;;5032314;28;20030;-75
2023/04/07 01:31:49;;;;;;;16.73;4.30;;;11.00;99.90;;;;;;5031984;28;20480;-75
2023/04/07 01:34:16;;;;;;;12.38;4.03;;;10.80;99.90;;;;;;5032152;28;20044;-74
2023/04/07 01:36:42;;;;;;;14.20;4.30;;;10.60;99.90;;;;;;5031796;28;20026;-74
2023/04/07 01:39:08;;;;;;;16.80;4.13;;;10.50;99.90;;;;;;5032182;28;20040;-74
2023/04/07 01:41:34;;;;;;;17.35;4.40;;;10.50;99.90;;;;;;5032072;28;20025;-75
2023/04/07 01:44:00;;;;;;;15.63;3.70;;;10.60;99.90;;;;;;5024337;28;20094;-74
2023/04/07 01:46:26;;;;;;;11.85;4.10;;;10.70;99.90;;;;;;4995599;28;20026;-74
2023/04/07 01:48:52;;;;;;;13.15;4.35;;;10.80;99.90;;;;;;4995764;28;20487;-75
2023/04/07 01:51:20;;;;;;;14.80;4.07;;;10.80;99.90;;;;;;5027020;28;20064;-74
2023/04/07 01:53:47;;;;;;;13.40;4.50;;;10.80;99.90;;;;;;5031844;28;20030;-75
2023/04/07 01:56:13;;;;;;;12.20;4.35;;;10.80;99.90;;;;;;5015519;28;20104;-74
2023/04/07 01:58:40;;;;;;;16.15;4.18;;;10.80;99.90;;;;;;5014741;28;20032;-74
2023/04/07 02:01:06;;;;;;;18.10;4.50;;;10.90;99.90;;;;;;5030782;28;20030;-75
2023/04/07 02:03:54;;;;;;;14.63;4.70;;;10.90;99.90;;;;;;5009500;28;20040;-75
2023/04/07 02:06:32;;;;;;;14.10;4.72;;;10.90;99.90;;;;;;5030186;28;20392;-74
2023/04/07 02:09:01;;;;;;;11.50;4.40;;;10.90;99.90;;;;;;5024164;28;20399;-74
2023/04/07 02:11:27;;;;;;;12.57;4.45;;;11.00;99.90;;;;;;5024057;28;20033;-75
2023/04/07 02:13:54;;;;;;;14.88;5.18;;;10.90;99.90;;;;;;5009236;28;20050;-75
2023/04/07 02:16:20;;;;;;;16.38;4.47;;;10.90;99.90;;;;;;4993338;28;20123;-75
2023/04/07 02:18:46;;;;;;;17.85;5.20;;;10.90;99.90;;;;;;5005781;28;20502;-74
2023/04/07 02:21:14;;;;;;;13.30;4.07;;;10.80;99.90;;;;;;5029788;28;20044;-75
2023/04/07 02:23:40;;;;;;;11.50;4.22;;;10.90;99.90;;;;;;5029967;28;20094;-75
2023/04/07 02:26:06;;;;;;;16.50;4.55;;;10.90;99.90;;;;;;5029783;28;20044;-75
2023/04/07 02:28:32;;;;;;;16.20;4.60;;;10.90;99.90;;;;;;5029909;28;20038;-75
2023/04/07 02:30:58;;;;;;;14.13;4.80;;;10.80;99.90;;;;;;5029369;28;20817;-75
2023/04/07 02:33:25;;;;;;;13.60;4.70;;;10.80;99.90;;;;;;5029202;28;20037;-75
2023/04/07 02:35:51;;;;;;;15.18;4.65;;;10.80;99.90;;;;;;5030623;28;20044;-75
2023/04/07 02:38:17;;;;;;;13.77;4.85;;;10.80;99.90;;;;;;5032148;28;20032;-74
2023/04/07 02:40:43;;;;;;;12.10;5.20;;;10.70;99.90;;;;;;5031188;28;20033;-74
2023/04/07 02:43:09;;;;;;;16.13;7.43;;;10.70;99.90;;;;;;5031106;28;20026;-75
2023/04/07 02:45:35;;;;;;;13.68;5.25;;;10.70;99.90;;;;;;5030540;28;20032;-74
2023/04/07 02:48:01;;;;;;;10.05;4.85;;;10.70;99.90;;;;;;5031798;28;20036;-74
2023/04/07 02:50:28;;;;;;;17.90;7.28;;;10.70;99.90;;;;;;5022531;28;20030;-75
2023/04/07 02:52:54;;;;;;;20.88;8.85;;;10.60;99.90;;;;;;5011156;28;20049;-74
2023/04/07 02:55:20;;;;;;;18.60;7.53;;;10.60;99.90;;;;;;5012436;28;20041;-74
2023/04/07 02:57:46;;;;;;;20.23;6.18;;;10.60;99.90;;;;;;5012500;28;20026;-74
2023/04/07 03:00:14;;;;;;;16.92;6.05;;;10.60;99.90;;;;;;5010792;28;20041;-74
2023/04/07 03:02:40;;;;;;;18.90;5.97;;;10.50;99.90;;;;;;4994681;28;20018;-74
2023/04/07 03:05:07;;;;;;;13.82;5.65;;;10.50;99.90;;;;;;5012508;28;20034;-75
2023/04/07 03:07:33;;;;;;;19.92;5.25;;;10.40;99.90;;;;;;5011057;28;20034;-74
2023/04/07 03:09:59;;;;;;;14.40;4.80;;;10.40;99.90;;;;;;5014405;28;20102;-74
2023/04/07 03:12:25;;;;;;;15.05;5.30;;;10.30;99.90;;;;;;5016313;28;20033;-75
2023/04/07 03:14:51;;;;;;;12.18;5.50;;;10.30;99.90;;;;;;5013910;28;20052;-75
2023/04/07 03:17:18;;;;;;;18.52;5.75;;;10.30;99.90;;;;;;4997374;28;20026;-75
2023/04/07 03:19:45;;;;;;;12.00;5.75;;;10.30;99.90;;;;;;5016176;28;20029;-75
2023/04/07 03:22:11;;;;;;;12.60;6.38;;;10.20;99.90;;;;;;5015003;28;20022;-74
2023/04/07 03:24:39;;;;;;;16.95;7.53;;;10.20;99.90;;;;;;5016159;28;20037;-74
2023/04/07 03:27:05;;;;;;;18.02;7.05;;;10.20;99.90;;;;;;5027715;28;20037;-75
2023/04/07 03:29:31;;;;;;;20.30;8.35;;;10.20;99.90;;;;;;5034576;28;20037;-74
2023/04/07 03:31:57;;;;;;;17.63;9.15;;;10.10;99.90;;;;;;5049567;28;20471;-74
2023/04/07 03:34:23;;;;;;;19.73;8.80;;;10.10;99.90;;;;;;5054279;28;20040;-74
2023/04/07 03:36:50;;;;;;;19.77;7.40;;;10.10;99.90;;;;;;5055394;28;20044;-74
2023/04/07 03:39:16;;;;;;;17.35;7.55;;;10.00;99.90;;;;;;5054066;28;20037;-74
2023/04/07 03:41:42;;;;;;;13.85;7.00;;;10.00;99.90;;;;;;5054370;28;20364;-74
2023/04/07 03:44:08;;;;;;;22.60;8.25;;;10.00;99.90;;;;;;5054173;28;20104;-74
2023/04/07 03:46:34;;;;;;;15.43;7.65;;;9.90;99.90;;;;;;5053289;28;20484;-74
2023/04/07 03:49:01;;;;;;;14.48;7.68;;;9.90;99.90;;;;;;5055444;28;20479;-74
2023/04/07 03:51:27;;;;;;;13.85;6.35;;;9.80;99.90;;;;;;5037136;28;20429;-74
2023/04/07 03:53:53;;;;;;;9.80;6.13;;;9.80;99.90;;;;;;5034080;28;20033;-74
2023/04/07 03:56:19;;;;;;;18.08;7.25;;;9.70;99.90;;;;;;5034018;28;20081;-74
2023/04/07 03:58:47;;;;;;;15.43;6.07;;;9.70;99.90;;;;;;5035336;28;20034;-74
2023/04/07 04:01:13;;;;;;;14.05;5.28;;;9.70;99.90;;;;;;5017041;28;20397;-74
2023/04/07 04:03:39;;;;;;;17.45;6.10;;;9.60;99.90;;;;;;5033967;28;20037;-75
2023/04/07 04:06:06;;;;;;;16.50;5.47;;;9.60;99.90;;;;;;5035200;28;20041;-74
2023/04/07 04:08:32;;;;;;;14.20;5.57;;;9.60;99.90;;;;;;5034965;28;20021;-74
2023/04/07 04:10:58;;;;;;;12.48;5.55;;;9.60;99.90;;;;;;5033872;28;20483;-74
2023/04/07 04:13:24;;;;;;;15.98;5.32;;;9.60;99.90;;;;;;5033541;28;20040;-74
2023/04/07 04:15:51;;;;;;;16.08;6.30;;;9.60;99.90;;;;;;5016664;28;20034;-74
2023/04/07 04:18:17;;;;;;;8.85;5.32;;;9.50;99.90;;;;;;5033656;28;20033;-74
2023/04/07 04:20:43;;;;;;;17.55;5.63;;;9.50;99.90;;;;;;5034329;28;20399;-74
2023/04/07 04:23:09;;;;;;;11.68;5.93;;;9.40;99.90;;;;;;5033613;28;20384;-75
2023/04/07 04:25:38;;;;;;;16.63;6.78;;;9.30;99.90;;;;;;5034743;28;20383;-74
2023/04/07 04:28:05;;;;;;;17.95;6.90;;;9.30;99.90;;;;;;5036396;28;20049;-74
2023/04/07 04:30:31;;;;;;;16.45;6.03;;;9.30;99.90;;;;;;5053901;28;20426;-74
2023/04/07 04:32:57;;;;;;;16.45;5.72;;;9.30;99.90;;;;;;5054547;28;20033;-74
2023/04/07 04:35:23;;;;;;;16.15;5.68;;;9.30;99.90;;;;;;5054313;28;20049;-74
2023/04/07 04:37:49;;;;;;;22.38;6.10;;;9.30;99.90;;;;;;5054422;28;20045;-74
2023/04/07 04:40:15;;;;;;;11.65;5.38;;;9.20;99.90;;;;;;5052784;28;20421;-74
2023/04/07 04:42:41;;;;;;;19.63;5.30;;;9.30;99.90;;;;;;5054336;28;20029;-74
2023/04/07 04:45:08;;;;;;;12.52;5.22;;;9.20;99.90;;;;;;5035105;28;20388;-74
2023/04/07 04:47:34;;;;;;;20.73;5.65;;;9.20;99.90;;;;;;4996831;28;20037;-74
2023/04/07 04:50:00;;;;;;;19.05;5.13;;;9.20;99.90;;;;;;4998380;28;20025;-74
2023/04/07 04:52:27;;;;;;;16.10;5.32;;;9.20;99.90;;;;;;5014346;28;20057;-74
2023/04/07 04:54:54;;;;;;;12.80;5.45;;;9.20;99.90;;;;;;5014352;28;20049;-74
2023/04/07 04:57:20;;;;;;;19.40;5.30;;;9.20;99.90;;;;;;5013137;28;20026;-74
2023/04/07 04:59:46;;;;;;;14.63;6.00;;;9.10;99.90;;;;;;5012267;28;20046;-74
2023/04/07 05:02:12;;;;;;;15.13;6.10;;;9.10;99.90;;;;;;5012592;28;20046;-74
2023/04/07 05:04:38;;;;;;;18.13;5.90;;;9.10;99.90;;;;;;5014286;28;20034;-74
2023/04/07 05:07:04;;;;;;;19.98;5.95;;;9.10;99.90;;;;;;5012963;28;20025;-74
2023/04/07 05:09:30;;;;;;;10.20;6.07;;;9.10;99.90;;;;;;5014118;28;20034;-74
2023/04/07 05:11:56;;;;;;;12.98;5.90;;;9.10;99.90;;;;;;5013007;28;20030;-74
2023/04/07 05:14:23;;;;;;;16.90;7.95;;;9.10;99.90;;;;;;5012349;28;20041;-74
2023/04/07 05:16:49;;;;;;;17.08;6.82;;;9.00;99.90;;;;;;5012276;28;20060;-74
2023/04/07 05:19:15;;;;;;;17.58;6.60;;;9.00;99.90;;;;;;5014018;28;20456;-74
2023/04/07 05:21:41;;;;;;;14.35;5.30;;;9.00;99.90;;;;;;5012696;28;20037;-75
2023/04/07 05:24:07;;;;;;;13.68;5.35;;;9.00;99.90;;;;;;5013720;28;20370;-74
2023/04/07 05:26:33;;;;;;;10.25;4.95;;;8.90;99.90;;;;;;5019797;28;20041;-74
2023/04/07 05:29:00;;;;;;;10.82;5.28;;;8.90;99.90;;;;;;5048690;28;20036;-75
2023/04/07 05:31:26;;;;;;;16.10;5.00;;;8.80;99.90;;;;;;5047631;28;20038;-74
2023/04/07 05:33:52;;;;;;;7.43;4.68;;;8.80;99.90;;;;;;5032404;28;20499;-74
2023/04/07 05:36:18;;;;;;;17.55;5.30;;;8.80;99.90;;;;;;5033472;28;20048;-75
2023/04/07 05:38:44;;;;;;;13.90;5.45;;;8.70;99.90;;;;;;5032156;28;20380;-74
2023/04/07 05:41:11;;;;;;;16.40;5.47;;;8.70;99.90;;;;;;5048814;28;20044;-74
2023/04/07 05:43:37;;;;;;;16.92;5.60;;;8.70;99.90;;;;;;5048138;28;20399;-75
2023/04/07 05:46:03;;;;;;;13.68;5.28;;;8.70;99.90;;;;;;5032834;28;20029;-74
2023/04/07 05:48:29;;;;;;;14.90;5.75;;;8.70;99.90;;;;;;5033237;28;20048;-75
2023/04/07 05:50:55;;;;;;;10.68;5.75;;;8.80;99.90;;;;;;5032865;28;20045;-74
2023/04/07 05:53:21;;;;;;;34.90;5.53;;;8.70;99.90;;;;;;5031834;28;20056;-75
2023/04/07 05:55:47;;;;;;;24.65;5.50;;;8.80;99.90;;;;;;5015131;28;20041;-74
2023/04/07 05:58:13;;;;;;;68.45;6.03;;;8.80;99.90;;;;;;5032931;28;20487;-75
2023/04/07 06:00:40;;;;;;;64.90;5.22;;;8.80;99.90;;;;;;5030834;28;20037;-74
2023/04/07 06:03:06;;;;;;;92.32;6.20;;;8.80;99.90;;;;;;5032876;28;20030;-74
2023/04/07 06:05:33;;;;;;;49.85;5.38;;;8.80;99.90;;;;;;5031826;28;20033;-74
2023/04/07 06:07:59;;;;;;;185.40;7.90;;;8.70;99.90;;;;;;5032882;28;20036;-74
2023/04/07 06:10:25;;;;;;;241.93;9.18;;;8.80;99.90;;;;;;5015316;28;20040;-74
2023/04/07 06:12:51;;;;;;;295.58;11.68;;;8.70;99.90;;;;;;5031688;28;20037;-74
2023/04/07 06:15:17;;;;;;;18.33;4.13;;;8.70;99.90;;;;;;5030528;28;20484;-74
2023/04/07 06:17:46;;;;;;;55.15;5.30;;;8.70;99.90;;;;;;5031077;28;20042;-74
2023/04/07 06:20:12;;;;;;;71.05;6.07;;;8.70;99.90;;;;;;5015483;28;20037;-74
2023/04/07 06:22:38;;;;;;;237.70;10.07;;;8.70;99.90;;;;;;5032585;28;20040;-74
2023/04/07 06:25:05;;;;;;;61.00;5.78;;;8.80;99.90;;;;;;5031055;28;20025;-75
2023/04/07 06:27:32;;;;;;;121.18;9.05;;;8.80;99.90;;;;;;5032264;28;20053;-74
2023/04/07 06:29:58;;;;;;;80.72;7.10;;;8.90;99.90;;;;;;5031060;28;20033;-74
2023/04/07 06:32:24;;;;;;;42.60;5.95;;;8.90;99.90;;;;;;5032003;28;20117;-74
2023/04/07 06:34:50;;;;;;;14.65;5.07;;;9.00;99.90;;;;;;5032307;28;20033;-74
2023/04/07 06:37:16;;;;;;;16.88;6.00;;;9.00;99.90;;;;;;5031221;28;20389;-74
2023/04/07 06:39:44;;;;;;;43.40;7.18;;;8.90;99.90;;;;;;5030954;28;20349;-74
2023/04/07 06:42:10;;;;;;;47.35;8.40;;;8.90;99.90;;;;;;5031181;28;20033;-75
2023/04/07 06:44:36;;;;;;;60.15;8.68;;;9.00;99.90;;;;;;5018898;28;20053;-75
2023/04/07 06:47:02;;;;;;;26.60;8.63;;;9.00;99.90;;;;;;5010800;28;20045;-75
2023/04/07 06:49:28;;;;;;;30.77;9.27;;;9.10;99.90;;;;;;4995306;28;20041;-75
2023/04/07 06:51:54;;;;;;;46.50;9.38;;;9.10;99.90;;;;;;5014661;28;20435;-75
2023/04/07 06:54:20;;;;;;;47.42;9.43;;;9.10;99.90;;;;;;5030416;28;20025;-74
2023/04/07 06:56:46;;;;;;;32.25;9.35;;;9.20;99.90;;;;;;5031062;28;20511;-74
2023/04/07 06:59:12;;;;;;;20.50;9.18;;;9.30;99.90;;;;;;5032183;28;20021;-74
2023/04/07 07:01:39;;;;;;;22.65;9.43;;;9.30;99.90;;;;;;5030489;28;20037;-75
2023/04/07 07:04:05;;;;;;;20.55;9.50;;;9.40;99.90;;;;;;5032153;28;20038;-75
2023/04/07 07:06:31;;;;;;;18.95;10.10;;;9.40;99.90;;;;;;5032139;28;20034;-75
2023/04/07 07:08:58;;;;;;;15.82;10.23;;;9.40;99.90;;;;;;5030591;28;20037;-75
2023/04/07 07:11:24;;;;;;;24.02;10.75;;;9.10;99.90;;;;;;5030846;28;20029;-75
2023/04/07 07:13:50;;;;;;;16.63;9.65;;;9.20;99.90;;;;;;5031019;28;20033;-75
2023/04/07 07:16:16;;;;;;;22.30;9.77;;;9.00;99.90;;;;;;5013738;28;20045;-74
2023/04/07 07:18:42;;;;;;;19.08;9.93;;;8.60;99.90;;;;;;5032236;28;20368;-74
2023/04/07 07:21:08;;;;;;;24.40;8.77;;;8.50;99.90;;;;;;5030772;28;20029;-75
2023/04/07 07:23:35;;;;;;;20.55;8.27;;;8.40;99.90;;;;;;5031595;28;20056;-74
2023/04/07 07:26:01;;;;;;;20.88;9.30;;;8.30;99.90;;;;;;5031746;28;20038;-75
2023/04/07 07:28:28;;;;;;;46.00;7.20;;;8.30;99.90;;;;;;5031929;28;20095;-74
2023/04/07 07:30:54;;;;;;;18.42;6.82;;;8.10;99.90;;;;;;5031626;28;20029;-74
2023/04/07 07:33:21;;;;;;;15.75;6.57;;;8.00;99.90;;;;;;5031967;28;20033;-74
2023/04/07 07:35:48;;;;;;;16.67;7.40;;;8.00;99.90;;;;;;5031817;28;20049;-74
2023/04/07 07:38:14;;;;;;;18.75;7.63;;;8.10;99.90;;;;;;5013724;28;20053;-74
2023/04/07 07:40:40;;;;;;;26.45;7.97;;;8.00;99.90;;;;;;5031834;28;20040;-74
2023/04/07 07:43:06;;;;;;;29.40;8.02;;;8.00;99.90;;;;;;5030794;28;20040;-75
2023/04/07 07:45:32;;;;;;;18.50;8.20;;;8.00;99.90;;;;;;4994430;28;20037;-75
2023/04/07 07:47:58;;;;;;;15.85;7.35;;;8.00;99.90;;;;;;5010838;28;20038;-75
2023/04/07 07:50:24;;;;;;;17.75;7.63;;;8.10;99.90;;;;;;5019783;28;20026;-75
2023/04/07 07:52:50;;;;;;;18.98;8.10;;;8.00;99.90;;;;;;5030057;28;20049;-75
2023/04/07 07:55:16;;;;;;;23.80;8.18;;;8.10;99.90;;;;;;5013991;28;20036;-75
2023/04/07 07:57:43;;;;;;;17.13;7.95;;;8.20;99.90;;;;;;5034457;28;20025;-75
2023/04/07 08:00:09;;;;;;;16.45;7.55;;;8.40;99.90;;;;;;5034708;28;20029;-74
2023/04/07 08:02:35;;;;;;;21.65;7.85;;;8.40;99.90;;;;;;5035279;28;20029;-75
2023/04/07 08:05:02;;;;;;;15.43;6.93;;;8.40;99.90;;;;;;5033987;28;20322;-74
2023/04/07 08:07:28;;;;;;;15.90;6.68;;;8.40;99.90;;;;;;5001084;28;20037;-74
2023/04/07 08:09:54;;;;;;;11.65;7.18;;;8.40;99.90;;;;;;5034027;28;20045;-74
2023/04/07 08:12:20;;;;;;;12.48;6.30;;;8.40;99.90;;;;;;5034986;28;20384;-74
2023/04/07 08:14:46;;;;;;;20.33;7.93;;;8.40;99.90;;;;;;5034704;28;20033;-74
2023/04/07 08:17:12;;;;;;;16.33;7.47;;;8.40;99.90;;;;;;5051122;28;20036;-74
2023/04/07 08:19:39;;;;;;;15.32;7.53;;;8.20;99.90;;;;;;5054726;28;20037;-74
2023/04/07 08:22:05;;;;;;;20.65;8.77;;;8.20;99.90;;;;;;5053282;28;20029;-74
2023/04/07 08:24:31;;;;;;;14.32;8.43;;;8.30;99.90;;;;;;5054746;28;20025;-74
2023/04/07 08:26:57;;;;;;;13.95;7.85;;;8.40;99.90;;;;;;5053211;28;20387;-74
2023/04/07 08:29:23;;;;;;;9.88;6.82;;;8.40;99.90;;;;;;5053456;28;20029;-74
2023/04/07 08:31:49;;;;;;;14.48;8.13;;;8.40;99.90;;;;;;5054056;28;20467;-74
2023/04/07 08:34:15;;;;;;;13.82;6.78;;;8.50;99.90;;;;;;5054468;28;20033;-74
2023/04/07 08:36:41;;;;;;;12.90;7.68;;;8.40;99.90;;;;;;5054181;28;20040;-74
2023/04/07 08:39:07;;;;;;;12.23;7.07;;;8.40;99.90;;;;;;5054545;28;20483;-74
2023/04/07 08:41:38;;;;;;;14.82;6.43;;;8.40;99.90;;;;;;5053085;28;20050;-74
2023/04/07 08:44:04;;;;;;;14.57;7.25;;;8.30;99.90;;;;;;5044231;28;20033;-74
2023/04/07 08:46:30;;;;;;;15.05;7.50;;;8.20;99.90;;;;;;5032657;28;20499;-74
2023/04/07 08:48:56;;;;;;;19.35;8.18;;;8.20;99.90;;;;;;5016648;28;20033;-74
2023/04/07 08:51:27;;;;;;;19.67;7.63;;;8.20;99.90;;;;;;5028856;28;20041;-74
2023/04/07 08:53:53;;;;;;;17.35;8.45;;;8.30;99.90;;;;;;5033097;28;20018;-74
2023/04/07 08:56:20;;;;;;;18.20;7.72;;;8.30;99.90;;;;;;5032859;28;20052;-74
2023/04/07 08:58:49;;;;;;;7.50;5.88;;;8.40;99.90;;;;;;5032995;28;20030;-74
2023/04/07 09:01:15;;;;;;;13.50;7.45;;;8.30;99.90;;;;;;5032320;28;20041;-74
2023/04/07 09:03:45;;;;;;;11.80;5.57;;;8.30;99.90;;;;;;5032969;28;20029;-74
2023/04/07 09:06:11;;;;;;;15.75;7.40;;;8.30;99.90;;;;;;5032468;28;20412;-74
2023/04/07 09:08:37;;;;;;;11.00;7.43;;;8.30;99.90;;;;;;5032591;28;20026;-74
2023/04/07 09:11:03;;;;;;;14.57;8.13;;;8.30;99.90;;;;;;5034018;28;20373;-74
2023/04/07 09:13:30;;;;;;;14.57;7.75;;;8.30;99.90;;;;;;5015726;28;20037;-74
2023/04/07 09:15:57;;;;;;;9.60;6.72;;;8.50;99.90;;;;;;5031850;28;20044;-74
2023/04/07 09:18:23;;;;;;;10.75;7.38;;;8.50;99.90;;;;;;5032827;28;20468;-74
2023/04/07 09:20:59;;;;;;;7.38;5.90;;;8.50;99.90;;;;;;5032260;28;20028;-74
2023/04/07 09:23:35;;;;;;;9.93;6.75;;;8.50;99.90;;;;;;5033681;28;20033;-74
2023/04/07 09:26:20;;;;;;;12.43;7.93;;;8.60;99.90;;;;;;5035816;28;20492;-74
2023/04/07 09:28:49;;;;;;;13.18;8.27;;;8.50;99.90;;;;;;5068502;28;20364;-74
2023/04/07 09:31:15;;;;;;;11.70;8.13;;;8.70;99.90;;;;;;5051767;28;20033;-74
2023/04/07 09:33:41;;;;;;;12.13;9.60;;;8.90;99.90;;;;;;5051796;28;20025;-74
2023/04/07 09:36:07;;;;;;;13.30;10.40;;;8.90;99.90;;;;;;5052166;28;20045;-75
2023/04/07 09:38:34;;;;;;;11.77;9.48;;;9.10;99.90;;;;;;5053257;28;20032;-75
2023/04/07 09:41:11;;;;;;;10.57;8.73;;;9.30;99.90;;;;;;5053292;28;20033;-74
2023/04/07 09:43:40;;;;;;;14.30;8.85;;;9.20;99.90;;;;;;5051947;28;20472;-74
2023/04/07 09:46:07;;;;;;;13.80;9.35;;;9.20;99.90;;;;;;5051311;28;20036;-74
2023/04/07 09:48:33;;;;;;;12.10;9.48;;;9.30;99.90;;;;;;5051686;28;20375;-75
2023/04/07 09:51:13;;;;;;;12.27;9.60;;;9.40;99.90;;;;;;5038843;28;20044;-74
2023/04/07 09:53:45;;;;;;;15.18;9.90;;;9.50;99.90;;;;;;5031946;28;20033;-74
2023/04/07 09:56:11;;;;;;;12.80;9.38;;;9.70;99.90;;;;;;5015291;28;20045;-75
2023/04/07 09:58:38;;;;;;;14.65;8.88;;;9.70;99.90;;;;;;5015530;28;20025;-75
2023/04/07 10:01:07;;;;;;;12.60;8.18;;;9.80;99.90;;;;;;5031445;28;20037;-74
2023/04/07 10:03:33;;;;;;;11.00;8.60;;;10.00;99.90;;;;;;5014562;28;20038;-75
2023/04/07 10:06:03;;;;;;;12.55;9.30;;;10.10;99.90;;;;;;5031827;28;20038;-74
2023/04/07 10:08:31;;;;;;;12.20;8.07;;;10.10;99.90;;;;;;5031770;28;20030;-74
2023/04/07 10:10:58;;;;;;;10.95;8.90;;;10.30;99.90;;;;;;5032817;28;20025;-74
2023/04/07 10:13:24;;;;;;;12.52;9.68;;;10.20;99.90;;;;;;5015208;28;20028;-74
2023/04/07 10:15:51;;;;;;;12.70;10.05;;;10.20;99.90;;;;;;4998129;28;20048;-74
2023/04/07 10:18:17;;;;;;;14.45;9.45;;;10.40;99.90;;;;;;5014831;28;20030;-75
2023/04/07 10:20:43;;;;;;;14.00;9.50;;;10.50;99.90;;;;;;4998126;28;20037;-75
2023/04/07 10:23:15;;;;;;;18.80;10.50;;;10.50;99.90;;;;;;5015261;28;20025;-75
2023/04/07 10:25:43;;;;;;;21.50;9.55;;;10.50;99.90;;;;;;5031442;28;20491;-75
2023/04/07 10:28:10;;;;;;;12.80;9.20;;;10.50;99.90;;;;;;5034277;28;20052;-74
2023/04/07 10:30:37;;;;;;;11.82;9.00;;;10.50;99.90;;;;;;5051063;28;20476;-74
2023/04/07 10:33:03;;;;;;;12.38;9.30;;;10.60;99.90;;;;;;5050761;28;20025;-75
2023/04/07 10:36:01;;;;;;;13.38;9.80;;;10.80;99.90;;;;;;5051128;28;20487;-74
2023/04/07 10:38:28;;;;;;;13.57;9.50;;;10.90;99.90;;;;;;5051241;28;20033;-75
2023/04/07 10:40:54;;;;;;;12.02;9.40;;;11.00;99.90;;;;;;5051096;28;20033;-75
2023/04/07 10:43:39;;;;;;;14.80;8.95;;;11.10;99.90;;;;;;5052139;28;20055;-74
2023/04/07 10:46:05;;;;;;;10.25;8.80;;;11.20;99.90;;;;;;5051515;28;20483;-75
2023/04/07 10:48:32;;;;;;;15.20;9.60;;;11.20;99.90;;;;;;5051085;28;20028;-75
2023/04/07 10:51:04;;;;;;;14.80;9.98;;;11.20;99.90;;;;;;5038290;28;20049;-75
2023/04/07 10:53:30;;;;;;;12.90;9.23;;;11.30;99.90;;;;;;5032145;28;20048;-75
2023/04/07 10:55:58;;;;;;;10.35;8.23;;;11.50;99.90;;;;;;5031106;28;20038;-75
2023/04/07 10:58:25;;;;;;;10.93;7.93;;;11.70;99.90;;;;;;5031011;28;20021;-75
2023/04/07 11:01:10;;;;;;;7.82;6.93;;;12.00;99.90;;;;;;5030159;28;20037;-75
2023/04/07 11:03:37;;;;;;;10.88;7.35;;;12.10;99.90;;;;;;5032155;28;20119;-75
2023/04/07 11:06:07;;;;;;;9.15;7.75;;;12.10;99.90;;;;;;5014656;28;20491;-75
2023/04/07 11:08:44;;;;;;;10.90;7.22;;;12.00;99.90;;;;;;5032108;28;20032;-75
2023/04/07 11:11:14;;;;;;;10.30;7.20;;;12.10;99.90;;;;;;5014679;28;20384;-75
2023/04/07 11:13:45;;;;;;;9.13;7.10;;;12.30;99.90;;;;;;5032067;28;20025;-75
2023/04/07 11:16:11;;;;;;;7.55;6.70;;;12.60;99.90;;;;;;5013666;28;20287;-75
2023/04/07 11:18:38;;;;;;;6.72;6.05;;;12.80;99.90;;;;;;5014729;28;20030;-75
2023/04/07 11:21:05;;;;;;;8.05;6.32;;;12.90;99.90;;;;;;5014424;28;20392;-76
2023/04/07 11:23:41;;;;;;;8.77;7.15;;;12.70;99.90;;;;;;5030861;28;20483;-75
2023/04/07 11:26:09;;;;;;;9.40;7.20;;;12.60;99.90;;;;;;5013934;28;20388;-75
2023/04/07 11:28:44;;;;;;;9.43;7.47;;;12.60;99.90;;;;;;5031537;28;20234;-75
2023/04/07 11:31:10;;;;;;;11.93;8.18;;;12.50;99.90;;;;;;5031797;28;20052;-75
2023/04/07 11:33:37;;;;;;;10.35;8.70;;;12.50;99.90;;;;;;5001356;28;20030;-75
2023/04/07 11:36:06;;;;;;;9.80;7.35;;;12.70;99.90;;;;;;5034413;28;20531;-75
2023/04/07 11:38:36;;;;;;;6.53;5.85;;;13.10;99.90;;;;;;5034539;28;20029;-75
2023/04/07 11:41:13;;;;;;;8.60;7.65;;;13.20;99.90;;;;;;5034480;28;20037;-76
2023/04/07 11:43:42;;;;;;;9.07;6.60;;;13.50;99.90;;;;;;5023424;28;20476;-75
2023/04/07 11:46:10;;;;;;;8.02;7.05;;;13.50;99.90;;;;;;5068911;28;20399;-76
2023/04/07 11:48:37;;;;;;;8.32;7.43;;;13.80;99.90;;;;;;5071075;28;20383;-75
2023/04/07 11:51:04;;;;;;;8.27;7.32;;;14.10;99.90;;;;;;5041763;28;20491;-75
2023/04/07 11:53:31;;;;;;;6.95;6.32;;;14.30;99.90;;;;;;5034202;28;20030;-73
2023/04/07 11:56:05;;;;;;;7.65;6.68;;;14.60;99.90;;;;;;5034196;28;20029;-73
2023/04/07 11:58:31;;;;;;;7.78;6.97;;;14.80;99.90;;;;;;5035005;28;20056;-73
2023/04/07 12:01:02;;;;;;;7.82;6.32;;;14.80;99.90;;;;;;5033561;28;20025;-73
2023/04/07 12:03:28;;;;;;;6.63;5.03;;;14.90;99.90;;;;;;5002211;28;20037;-73
2023/04/07 12:05:54;;;;;;;8.73;5.53;;;14.80;99.90;;;;;;5017719;28;20029;-75
2023/04/07 12:08:21;;;;;;;8.40;6.90;;;14.40;99.90;;;;;;5035111;28;20036;-75
2023/04/07 12:10:48;;;;;;;8.98;7.80;;;14.50;99.90;;;;;;5035101;28;20022;-75
2023/04/07 12:13:14;;;;;;;7.55;6.85;;;14.90;99.90;;;;;;5034782;28;20026;-75
2023/04/07 12:15:40;;;;;;;10.20;7.30;;;15.40;99.90;;;;;;5034401;28;20025;-75
2023/04/07 12:18:06;;;;;;;8.15;6.78;;;15.80;99.90;;;;;;5034938;28;20056;-75
2023/04/07 12:20:32;;;;;;;7.05;6.25;;;15.50;99.90;;;;;;5033742;28;20021;-75
2023/04/07 12:22:59;;;;;;;7.60;6.32;;;15.40;99.90;;;;;;5034884;28;20037;-75
2023/04/07 12:25:26;;;;;;;7.57;6.07;;;15.30;99.90;;;;;;5033688;28;20372;-75
2023/04/07 12:27:52;;;;;;;8.63;5.90;;;15.20;99.90;;;;;;5052229;28;20494;-75
2023/04/07 12:30:18;;;;;;;6.95;6.25;;;15.30;99.90;;;;;;5054253;28;20025;-75
2023/04/07 12:32:44;;;;;;;6.75;6.10;;;15.10;99.90;;;;;;5036386;28;20048;-75
2023/04/07 12:35:11;;;;;;;6.80;5.80;;;14.90;99.90;;;;;;5053395;28;20499;-75
2023/04/07 12:37:37;;;;;;;7.95;5.35;;;14.50;99.90;;;;;;5053218;28;20041;-75
2023/04/07 12:40:03;;;;;;;7.22;6.13;;;14.20;99.90;;;;;;5054429;28;20028;-75
2023/04/07 12:42:29;;;;;;;8.40;5.57;;;14.10;99.90;;;;;;5052304;28;20479;-75
2023/04/07 12:44:55;;;;;;;6.10;5.50;;;14.30;99.90;;;;;;5054409;28;20021;-75